New Vibes — FAA9849 — position and weather

sailwx.info

Track history (hours):
 
Tides and Currents Weather Stations Pressure Air Temp Water Temp Dewpoint Dewpoint Depression Visibility Wind Speed Wind Dir Waves Ship Positions

New Vibes

Last reported at 2017-Sep-18 12:48 UTC. Time now 2017-Sep-23 06:00 UTC.
Position N 47°36' W 002°52'.

Length 12 m.

Type: Sailing vessel. MMSI: 227176580.

Date/timePositionNaut miles runAvg speedWind from/ knotsBaromVisibWave heightAir tempDewpointWater temp
2017-Sep-18 12:48N 47°36' W 002°52'0 0.0
2017-Sep-18 12:29N 47°36' W 002°52'2 4.4
2017-Sep-18 12:00N 47°34' W 002°53'3 5.0
2017-Sep-18 11:25N 47°32' W 002°56'1 2.3
2017-Sep-18 11:00N 47°31' W 002°56'3 3.0
2017-Sep-18 10:01N 47°29' W 002°53'0 4.2
2017-Sep-18 09:58N 47°29' W 002°53'4 5.1
2017-Sep-18 09:07N 47°32' W 002°59'0 3.8
2017-Sep-18 09:00N 47°32' W 002°59'2 3.5
2017-Sep-18 08:30N 47°33' W 003°00'1 0.0
2017-Sep-17 14:45N 47°34' W 003°01'5 0.2
2017-Sep-16 08:39N 47°30' W 002°57'2 4.4
2017-Sep-16 08:05N 47°33' W 002°55'1 5.9
2017-Sep-16 08:00N 47°33' W 002°55'3 5.4
2017-Sep-16 07:26N 47°35' W 002°52'  
2017-Sep-12 16:39N 47°36' W 002°52'0 0.0
2017-Sep-12 16:30N 47°36' W 002°52'0 0.0
2017-Sep-12 15:59N 47°36' W 002°51'1 2.1
2017-Sep-12 15:26N 47°35' W 002°52'2 3.9
2017-Sep-12 15:00N 47°34' W 002°54'5 1.4
2017-Sep-12 11:10N 47°29' W 002°55'2 7.4
2017-Sep-12 10:52N 47°31' W 002°55'2 5.6
2017-Sep-12 10:29N 47°33' W 002°55'3 5.8
2017-Sep-12 10:00N 47°35' W 002°52'1 2.4
2017-Sep-12 09:30N 47°36' W 002°51'0 0.0
2017-Sep-12 09:00N 47°36' W 002°52'0 0.0
2017-Sep-10 15:11N 47°36' W 002°52'0 0.0
2017-Sep-10 14:54N 47°36' W 002°51'6 1.1
2017-Sep-10 09:08N 47°30' W 002°54'2 0.1
2017-Sep-09 09:47N 47°32' W 002°56'3 8.8
2017-Sep-09 09:29N 47°34' W 002°54'2 4.8
2017-Sep-09 09:00N 47°36' W 002°51'  
Track history (hours):
 
Tides and Currents Weather Stations Pressure Air Temp Water Temp Dewpoint Dewpoint Depression Visibility Wind Speed Wind Dir Waves Ship Positions

New Vibes

Last reported at 2017-Sep-18 12:48 UTC. Time now 2017-Sep-23 06:00 UTC.
Position N 47°36' W 002°52'.

Length 12 m.

Type: Sailing vessel. MMSI: 227176580.

Date/timePositionNaut miles runAvg speedWind from/ knotsBaromVisibWave heightAir tempDewpointWater temp
2017-Sep-18 12:48N 47°36' W 002°52'0 0.0
2017-Sep-18 12:29N 47°36' W 002°52'2 4.4
2017-Sep-18 12:00N 47°34' W 002°53'3 5.0
2017-Sep-18 11:25N 47°32' W 002°56'1 2.3
2017-Sep-18 11:00N 47°31' W 002°56'3 3.0
2017-Sep-18 10:01N 47°29' W 002°53'0 4.2
2017-Sep-18 09:58N 47°29' W 002°53'4 5.1
2017-Sep-18 09:07N 47°32' W 002°59'0 3.8
2017-Sep-18 09:00N 47°32' W 002°59'2 3.5
2017-Sep-18 08:30N 47°33' W 003°00'1 0.0
2017-Sep-17 14:45N 47°34' W 003°01'5 0.2
2017-Sep-16 08:39N 47°30' W 002°57'2 4.4
2017-Sep-16 08:05N 47°33' W 002°55'1 5.9
2017-Sep-16 08:00N 47°33' W 002°55'3 5.4
2017-Sep-16 07:26N 47°35' W 002°52'  
2017-Sep-12 16:39N 47°36' W 002°52'0 0.0
2017-Sep-12 16:30N 47°36' W 002°52'0 0.0
2017-Sep-12 15:59N 47°36' W 002°51'1 2.1
2017-Sep-12 15:26N 47°35' W 002°52'2 3.9
2017-Sep-12 15:00N 47°34' W 002°54'5 1.4
2017-Sep-12 11:10N 47°29' W 002°55'2 7.4
2017-Sep-12 10:52N 47°31' W 002°55'2 5.6
2017-Sep-12 10:29N 47°33' W 002°55'3 5.8
2017-Sep-12 10:00N 47°35' W 002°52'1 2.4
2017-Sep-12 09:30N 47°36' W 002°51'0 0.0
2017-Sep-12 09:00N 47°36' W 002°52'0 0.0
2017-Sep-10 15:11N 47°36' W 002°52'0 0.0
2017-Sep-10 14:54N 47°36' W 002°51'6 1.1
2017-Sep-10 09:08N 47°30' W 002°54'2 0.1
2017-Sep-09 09:47N 47°32' W 002°56'3 8.8
2017-Sep-09 09:29N 47°34' W 002°54'2 4.8
2017-Sep-09 09:00N 47°36' W 002°51'  

Dump ship's entire track history